Airport ID:KRTS
Update Time (UTC):02/07/2022 17:40
Wind Speed (Knots):14
Wind Direction (Magnetic):270
Temperature (°C):25
Dew Point (°C):-9
Humidity (%):10
Altimeter (inHg):30.03
Density Altitude (Feet):7300
Visibility:10+
Clouds (Hundreds of feet):CLR
Present Weather:
METAR:METAR KRTS 021740Z AUTO 28014KT 10SM CLR 25/M09 A3003 RMK AO2

The data displayed is for advisory purposes only and is not to be used for flight planning or operations.